Time;durP1;ratioP1;P1;durP2;ratioP2;P2;SDS_P1;SDS_P2;PMS_P1;PMS_P2;Temp;Humidity;BMP_temperature;BMP_pressure;BME280_temperature;BME280_humidity;BME280_pressure;Samples;Min_cycle;Max_cycle;Signal;HPM_P1;HPM_P2
2023/10/01 00:00:17;;;;;;;14.55;6.95;;;14.30;99.90;;;;;;5028202;28;20040;-87
2023/10/01 00:02:43;;;;;;;9.98;7.15;;;14.20;99.90;;;;;;5029931;28;20107;-84
2023/10/01 00:05:10;;;;;;;21.77;7.65;;;14.20;99.90;;;;;;5029296;28;20518;-85
2023/10/01 00:07:40;;;;;;;15.63;8.48;;;14.20;99.90;;;;;;5029876;28;20383;-84
2023/10/01 00:10:13;;;;;;;11.70;6.72;;;14.20;99.90;;;;;;5029570;28;20104;-81
2023/10/01 00:12:40;;;;;;;15.60;6.95;;;14.10;99.90;;;;;;5029695;28;20116;-86
2023/10/01 00:15:11;;;;;;;15.30;7.65;;;14.10;99.90;;;;;;5029905;28;20083;-84
2023/10/01 00:17:38;;;;;;;17.40;7.57;;;14.10;99.90;;;;;;5032419;28;20050;-84
2023/10/01 00:20:09;;;;;;;10.50;7.47;;;14.10;99.90;;;;;;5032315;28;20029;-84
2023/10/01 00:22:37;;;;;;;14.95;8.20;;;14.10;99.90;;;;;;5032187;28;20460;-87
2023/10/01 00:25:06;;;;;;;12.55;7.78;;;14.10;99.90;;;;;;5031985;28;20401;-87
2023/10/01 00:27:32;;;;;;;13.85;7.97;;;14.00;99.90;;;;;;5033255;28;20033;-86
2023/10/01 00:29:57;;;;;;;12.10;8.35;;;14.00;99.90;;;;;;5033037;28;20088;-87
2023/10/01 00:32:23;;;;;;;15.85;8.57;;;14.00;99.90;;;;;;5033352;28;20034;-87
2023/10/01 00:34:49;;;;;;;16.40;8.13;;;14.00;99.90;;;;;;5032706;28;20048;-84
2023/10/01 00:37:14;;;;;;;19.92;9.32;;;13.90;99.90;;;;;;5032529;28;20083;-88
2023/10/01 00:39:40;;;;;;;;;;;13.90;99.90;;;;;;5050029;28;20564;-87
2023/10/01 00:42:08;;;;;;;14.32;8.68;;;13.90;99.90;;;;;;5031874;28;20377;-86
2023/10/01 00:44:34;;;;;;;18.70;8.48;;;13.90;99.90;;;;;;5032258;28;20107;-86
2023/10/01 00:47:04;;;;;;;13.43;7.68;;;13.90;99.90;;;;;;5032361;28;20494;-87
2023/10/01 00:49:32;;;;;;;13.63;8.95;;;13.90;99.90;;;;;;5048561;28;20474;-86
2023/10/01 00:52:00;;;;;;;16.58;8.70;;;13.90;99.90;;;;;;5033308;28;20096;-85
2023/10/01 00:54:28;;;;;;;12.25;7.97;;;13.90;99.90;;;;;;5033079;28;20029;-84
2023/10/01 00:56:54;;;;;;;13.30;7.38;;;13.90;99.90;;;;;;5031679;28;20033;-85
2023/10/01 00:59:19;;;;;;;10.88;7.95;;;13.90;99.90;;;;;;5031693;28;20068;-87
2023/10/01 01:01:46;;;;;;;14.95;7.70;;;13.90;99.90;;;;;;5032575;28;20087;-87
2023/10/01 01:04:19;;;;;;;11.10;7.97;;;13.90;99.90;;;;;;5031429;28;20033;-86
2023/10/01 01:06:47;;;;;;;12.23;7.82;;;13.90;99.90;;;;;;5032847;28;20065;-83
2023/10/01 01:09:15;;;;;;;11.40;7.65;;;13.80;99.90;;;;;;5031428;28;20048;-88
2023/10/01 01:11:40;;;;;;;13.48;8.05;;;13.80;99.90;;;;;;5031307;28;20030;-86
2023/10/01 01:14:07;;;;;;;12.07;8.23;;;13.80;99.90;;;;;;5031222;28;20033;-86
2023/10/01 01:16:33;;;;;;;12.45;8.40;;;13.80;99.90;;;;;;5032427;28;20320;-85
2023/10/01 01:19:00;;;;;;;13.65;9.00;;;13.70;99.90;;;;;;5048060;28;20104;-87
2023/10/01 01:21:26;;;;;;;11.95;7.15;;;13.70;99.90;;;;;;5032364;28;20084;-86
2023/10/01 01:23:53;;;;;;;12.20;8.02;;;13.70;99.90;;;;;;5031516;28;20591;-86
2023/10/01 01:26:22;;;;;;;12.45;7.78;;;13.60;99.90;;;;;;5031186;28;20045;-87
2023/10/01 01:28:48;;;;;;;13.10;8.07;;;13.60;99.90;;;;;;5030946;28;20571;-86
2023/10/01 01:31:14;;;;;;;12.35;8.57;;;13.50;99.90;;;;;;5032009;28;20486;-85
2023/10/01 01:33:40;;;;;;;19.05;8.15;;;13.50;99.90;;;;;;5032221;28;20030;-87
2023/10/01 01:36:09;;;;;;;14.00;8.07;;;13.50;99.90;;;;;;5031837;28;20556;-87
2023/10/01 01:38:38;;;;;;;11.32;7.93;;;13.50;99.90;;;;;;5030861;28;20033;-87
2023/10/01 01:41:06;;;;;;;9.55;7.28;;;13.50;99.90;;;;;;5047463;28;20548;-87
2023/10/01 01:43:32;;;;;;;13.15;8.18;;;13.40;99.90;;;;;;5030754;28;20037;-87
2023/10/01 01:46:08;;;;;;;11.25;7.43;;;13.40;99.90;;;;;;5030859;28;20033;-88
2023/10/01 01:48:37;;;;;;;12.13;7.45;;;13.30;99.90;;;;;;5030834;28;20084;-82
2023/10/01 01:51:04;;;;;;;14.20;7.63;;;13.30;99.90;;;;;;5032090;28;20051;-85
2023/10/01 01:53:34;;;;;;;15.82;8.50;;;13.30;99.90;;;;;;5030506;28;20033;-87
2023/10/01 01:56:04;;;;;;;13.85;8.00;;;13.20;99.90;;;;;;5031911;28;20033;-86
2023/10/01 01:58:33;;;;;;;11.20;7.85;;;13.20;99.90;;;;;;5033438;28;20054;-86
2023/10/01 02:01:08;;;;;;;11.82;8.00;;;13.20;99.90;;;;;;5030945;28;20029;-87
2023/10/01 02:03:44;;;;;;;12.80;7.93;;;13.10;99.90;;;;;;5029963;28;20025;-88
2023/10/01 02:06:10;;;;;;;12.38;8.40;;;13.10;99.90;;;;;;5029920;28;20883;-87
2023/10/01 02:08:58;;;;;;;12.63;8.63;;;13.10;99.90;;;;;;5031830;28;20104;-85
2023/10/01 02:11:25;;;;;;;16.42;8.90;;;13.10;99.90;;;;;;5030501;28;20065;-86
2023/10/01 02:13:54;;;;;;;13.90;8.90;;;13.00;99.90;;;;;;5029753;28;20498;-87
2023/10/01 02:18:56;;;;;;;11.60;8.50;;;13.00;99.90;;;;;;5031347;28;20406;-88
2023/10/01 02:21:47;;;;;;;21.38;11.15;;;13.00;99.90;;;;;;5030227;28;20071;-85
2023/10/01 02:24:19;;;;;;;11.82;8.95;;;13.00;99.90;;;;;;5031247;28;20516;-86
2023/10/01 02:26:46;;;;;;;14.27;9.73;;;13.00;99.90;;;;;;5031133;28;20364;-88
2023/10/01 02:29:13;;;;;;;16.98;9.32;;;13.00;99.90;;;;;;5031513;28;20381;-86
2023/10/01 02:31:46;;;;;;;11.38;9.55;;;13.00;99.90;;;;;;5031355;28;20033;-87
2023/10/01 02:34:11;;;;;;;14.07;8.60;;;13.00;99.90;;;;;;5030305;28;20041;-87
2023/10/01 02:36:42;;;;;;;;;;;12.90;99.90;;;;;;5030912;28;20029;-87
2023/10/01 02:39:21;;;;;;;18.55;10.15;;;12.90;99.90;;;;;;5031076;28;19912;-85
2023/10/01 02:44:34;;;;;;;14.13;9.60;;;12.90;99.90;;;;;;5031318;28;20067;-87
2023/10/01 02:47:16;;;;;;;12.50;8.95;;;12.80;99.90;;;;;;5029689;28;20482;-86
2023/10/01 02:49:50;;;;;;;15.20;8.75;;;12.80;99.90;;;;;;5031148;28;20026;-86
2023/10/01 02:52:32;;;;;;;12.02;8.43;;;12.70;99.90;;;;;;5031044;28;20033;-85
2023/10/01 02:55:00;;;;;;;13.88;9.63;;;12.70;99.90;;;;;;5031244;28;20072;-88
2023/10/01 02:57:26;;;;;;;92.18;12.07;;;12.70;99.90;;;;;;5029682;28;20045;-74
2023/10/01 03:02:39;;;;;;;11.82;8.13;;;12.80;99.90;;;;;;5029274;28;20029;-75
2023/10/01 03:05:07;;;;;;;12.93;7.78;;;12.90;99.90;;;;;;5027676;28;20037;-75
2023/10/01 03:07:38;;;;;;;12.88;8.15;;;13.00;99.90;;;;;;5028911;28;20079;-74
2023/10/01 03:10:16;;;;;;;18.17;8.00;;;13.20;99.90;;;;;;5028870;28;20029;-73
2023/10/01 03:12:49;;;;;;;13.30;8.90;;;13.20;99.90;;;;;;5027615;28;20057;-74
2023/10/01 03:17:55;;;;;;;11.75;7.95;;;13.30;99.90;;;;;;5028527;28;20156;-75
2023/10/01 03:23:17;;;;;;;13.07;7.35;;;13.50;99.90;;;;;;5028939;28;20032;-72
2023/10/01 03:25:56;;;;;;;12.23;7.80;;;13.50;99.90;;;;;;5027378;28;20052;-75
2023/10/01 03:28:26;;;;;;;11.82;7.57;;;13.50;99.90;;;;;;5028686;28;20556;-74
2023/10/01 03:31:16;;;;;;;11.43;6.97;;;13.50;99.90;;;;;;5027306;28;20413;-73
2023/10/01 03:33:45;;;;;;;10.35;7.25;;;13.40;99.90;;;;;;5028611;28;20383;-73
2023/10/01 03:36:12;;;;;;;12.00;8.05;;;13.40;99.90;;;;;;5027505;28;20029;-74
2023/10/01 03:38:39;;;;;;;15.95;7.53;;;13.50;99.90;;;;;;5028700;28;20036;-73
2023/10/01 03:41:20;;;;;;;14.35;7.72;;;13.70;99.90;;;;;;5028449;28;20036;-74
2023/10/01 03:43:47;;;;;;;19.55;7.55;;;13.80;99.90;;;;;;5028512;28;20029;-71
2023/10/01 03:49:33;;;;;;;13.52;8.50;;;13.90;99.90;;;;;;5028343;28;20022;-75
2023/10/01 03:51:58;;;;;;;11.07;7.45;;;13.90;99.90;;;;;;5028252;28;20026;-75
2023/10/01 03:54:44;;;;;;;14.30;8.35;;;13.90;99.90;;;;;;5028289;28;20044;-76
2023/10/01 03:57:20;;;;;;;12.38;8.57;;;14.00;99.90;;;;;;5028210;28;20490;-75
2023/10/01 03:59:53;;;;;;;13.73;8.25;;;14.10;99.90;;;;;;5028316;28;20398;-72
2023/10/01 04:02:46;;;;;;;16.40;7.88;;;14.20;99.90;;;;;;5028249;28;20048;-73
2023/10/01 04:05:21;;;;;;;13.95;8.25;;;14.30;99.90;;;;;;5028151;28;20045;-75
2023/10/01 04:07:48;;;;;;;13.25;8.05;;;14.30;99.90;;;;;;5028233;28;20538;-74
2023/10/01 04:13:05;;;;;;;13.85;7.45;;;14.50;99.90;;;;;;5028473;28;20500;-75
2023/10/01 04:15:31;;;;;;;10.25;7.25;;;14.50;99.90;;;;;;5027978;28;20112;-72
2023/10/01 04:20:48;;;;;;;10.00;7.05;;;14.40;99.90;;;;;;5028018;28;20057;-73
2023/10/01 04:23:48;;;;;;;11.75;6.53;;;14.50;99.90;;;;;;5028144;28;20025;-73
2023/10/01 04:26:13;;;;;;;9.77;7.00;;;14.50;99.90;;;;;;5026622;28;20045;-73
2023/10/01 04:28:44;;;;;;;8.45;6.10;;;14.60;99.90;;;;;;5026721;28;20120;-74
2023/10/01 04:31:15;;;;;;;10.23;6.63;;;14.60;99.90;;;;;;5028091;28;20033;-73
2023/10/01 04:33:51;;;;;;;11.45;7.57;;;14.60;99.90;;;;;;5028023;28;20128;-73
2023/10/01 04:36:19;;;;;;;13.20;7.10;;;14.60;99.90;;;;;;5026500;28;20037;-73
2023/10/01 04:38:48;;;;;;;13.82;6.55;;;14.70;99.90;;;;;;5043261;28;20029;-73
2023/10/01 04:41:18;;;;;;;12.05;7.30;;;14.70;99.90;;;;;;5026567;28;20069;-73
2023/10/01 04:43:51;;;;;;;12.55;7.40;;;14.70;99.90;;;;;;5026438;28;20021;-73
2023/10/01 04:46:22;;;;;;;13.15;7.85;;;14.80;99.90;;;;;;5026269;28;20038;-73
2023/10/01 04:48:48;;;;;;;10.32;7.18;;;14.80;99.90;;;;;;5027923;28;20022;-73
2023/10/01 04:51:14;;;;;;;10.70;7.00;;;14.90;99.90;;;;;;5027991;28;20033;-73
2023/10/01 04:53:46;;;;;;;11.18;7.13;;;14.90;99.90;;;;;;5026560;28;20076;-74
2023/10/01 04:56:20;;;;;;;11.85;7.30;;;14.90;99.90;;;;;;5027933;28;20060;-73
2023/10/01 04:58:51;;;;;;;14.27;6.90;;;15.00;99.90;;;;;;5042786;28;20606;-72
2023/10/01 05:01:18;;;;;;;12.27;7.38;;;15.10;99.90;;;;;;5029663;28;20593;-72
2023/10/01 05:03:44;;;;;;;15.65;6.70;;;15.10;99.90;;;;;;5029652;28;20076;-73
2023/10/01 05:06:18;;;;;;;10.18;6.97;;;15.10;99.90;;;;;;5029924;28;20717;-73
2023/10/01 05:08:44;;;;;;;13.75;6.80;;;15.20;99.90;;;;;;5029978;28;20498;-73
2023/10/01 05:11:11;;;;;;;10.82;6.90;;;15.20;99.90;;;;;;5031278;28;20036;-74
2023/10/01 05:13:40;;;;;;;13.75;6.95;;;15.30;99.90;;;;;;5031026;28;20072;-74
2023/10/01 05:16:14;;;;;;;11.60;6.07;;;15.30;99.90;;;;;;5029311;28;20489;-73
2023/10/01 05:18:45;;;;;;;9.20;5.65;;;15.30;99.90;;;;;;5031195;28;20390;-74
2023/10/01 05:21:18;;;;;;;11.98;5.95;;;15.30;99.90;;;;;;5030980;28;20026;-73
2023/10/01 05:23:45;;;;;;;11.35;5.72;;;15.30;99.90;;;;;;5030913;28;20047;-73
2023/10/01 05:26:11;;;;;;;9.02;5.85;;;15.40;99.90;;;;;;5030711;28;20033;-74
2023/10/01 05:28:41;;;;;;;18.95;5.43;;;15.40;99.90;;;;;;5045986;28;20032;-74
2023/10/01 05:31:14;;;;;;;7.80;5.05;;;15.40;99.90;;;;;;5029464;28;20037;-73
2023/10/01 05:33:46;;;;;;;8.90;5.20;;;15.40;99.90;;;;;;5030699;28;20458;-73
2023/10/01 05:36:16;;;;;;;11.55;5.35;;;15.40;99.90;;;;;;5030674;28;20117;-74
2023/10/01 05:38:44;;;;;;;11.48;4.78;;;15.40;99.90;;;;;;5030605;28;20040;-74
2023/10/01 05:41:13;;;;;;;11.50;5.75;;;15.40;99.90;;;;;;5030759;28;20087;-74
2023/10/01 05:44:14;;;;;;;9.10;4.80;;;15.50;99.90;;;;;;5045921;28;20076;-74
2023/10/01 05:46:32;;;;;;;8.52;4.85;;;15.50;99.90;;;;;;5029353;28;20544;-75
2023/10/01 05:49:00;;;;;;;6.90;4.07;;;15.50;99.90;;;;;;5030533;28;20045;-74
2023/10/01 05:51:45;;;;;;;7.45;4.15;;;15.70;99.90;;;;;;5029323;28;20125;-75
2023/10/01 05:54:21;;;;;;;8.52;3.28;;;15.60;99.90;;;;;;5045619;28;20033;-74
2023/10/01 05:56:54;;;;;;;7.18;3.40;;;15.60;99.90;;;;;;5029104;28;20033;-73
2023/10/01 05:59:22;;;;;;;7.32;3.53;;;15.70;99.90;;;;;;5030469;28;20036;-74
2023/10/01 06:01:48;;;;;;;6.70;3.83;;;15.70;99.90;;;;;;5028904;28;20120;-74
2023/10/01 06:04:17;;;;;;;13.38;5.28;;;15.80;99.90;;;;;;5030230;28;20043;-75
2023/10/01 06:06:45;;;;;;;12.43;4.88;;;15.90;99.90;;;;;;5028863;28;20042;-75
2023/10/01 06:09:23;;;;;;;5.22;3.15;;;16.00;99.90;;;;;;5028840;28;20074;-75
2023/10/01 06:11:49;;;;;;;10.60;3.90;;;15.90;99.90;;;;;;5030012;28;20025;-74
2023/10/01 06:17:00;;;;;;;7.38;3.53;;;15.90;99.90;;;;;;5029777;28;20575;-75
2023/10/01 06:19:32;;;;;;;22.08;5.18;;;16.00;99.90;;;;;;5029952;28;20026;-75
2023/10/01 06:22:12;;;;;;;9.43;4.97;;;16.10;99.90;;;;;;5028750;28;20040;-75
2023/10/01 06:24:39;;;;;;;12.25;4.97;;;16.00;99.90;;;;;;5029824;28;20041;-74
2023/10/01 06:27:06;;;;;;;7.40;4.03;;;16.10;99.90;;;;;;5029745;28;20017;-74
2023/10/01 06:29:33;;;;;;;7.57;4.32;;;16.00;99.90;;;;;;5029675;28;20064;-74
2023/10/01 06:32:02;;;;;;;10.45;4.93;;;16.10;99.90;;;;;;5028494;28;20056;-74
2023/10/01 06:34:39;;;;;;;12.48;4.72;;;16.00;99.90;;;;;;5029685;28;20843;-75
2023/10/01 06:37:05;;;;;;;11.70;3.97;;;16.10;99.90;;;;;;5028300;28;20083;-75
2023/10/01 06:39:35;;;;;;;8.40;5.05;;;16.20;99.90;;;;;;5029445;28;20025;-75
2023/10/01 06:42:20;;;;;;;13.20;4.75;;;16.20;99.90;;;;;;5029511;28;20401;-75
2023/10/01 06:44:55;;;;;;;8.27;4.22;;;16.30;99.90;;;;;;5029474;28;20029;-75
2023/10/01 06:47:25;;;;;;;8.95;3.53;;;16.40;99.90;;;;;;5044679;28;20025;-74
2023/10/01 06:52:34;;;;;;;7.70;3.72;;;16.50;99.90;;;;;;5029582;28;20036;-75
2023/10/01 06:55:04;;;;;;;6.47;3.10;;;16.70;99.90;;;;;;5027653;28;20606;-75
2023/10/01 06:57:33;;;;;;;8.15;3.10;;;16.90;99.90;;;;;;5028835;28;20044;-75
2023/10/01 07:00:13;;;;;;;6.90;2.67;;;17.10;99.90;;;;;;5028669;28;20025;-75
2023/10/01 07:02:40;;;;;;;9.43;3.22;;;17.20;99.90;;;;;;5027849;28;20410;-74
2023/10/01 07:05:07;;;;;;;7.78;3.17;;;17.20;99.90;;;;;;5028896;28;20130;-75
2023/10/01 07:07:35;;;;;;;6.85;3.13;;;17.30;99.90;;;;;;5027646;28;20029;-75
2023/10/01 07:10:10;;;;;;;5.78;2.80;;;17.30;99.90;;;;;;5027830;28;20486;-75
2023/10/01 07:12:37;;;;;;;6.78;2.67;;;17.10;99.90;;;;;;5027816;28;20064;-76
2023/10/01 07:15:04;;;;;;;4.97;2.75;;;17.10;99.90;;;;;;5027526;28;20049;-74
2023/10/01 07:17:31;;;;;;;7.00;2.50;;;17.20;99.90;;;;;;5043982;28;20146;-76
2023/10/01 07:19:59;;;;;;;8.27;3.33;;;17.20;99.90;;;;;;5027588;28;20052;-75
2023/10/01 07:22:34;;;;;;;7.53;3.08;;;17.20;99.90;;;;;;5027584;28;20037;-75
2023/10/01 07:25:00;;;;;;;11.48;2.75;;;17.20;99.90;;;;;;5027794;28;20041;-75
2023/10/01 07:27:29;;;;;;;8.13;3.00;;;17.20;99.90;;;;;;5028727;28;20036;-76
2023/10/01 07:29:56;;;;;;;9.25;3.72;;;17.30;99.90;;;;;;5028642;28;20025;-75
2023/10/01 07:32:24;;;;;;;5.22;2.50;;;17.50;99.90;;;;;;5028599;28;20656;-74
2023/10/01 07:35:06;;;;;;;8.40;3.20;;;17.70;99.90;;;;;;5028401;28;20029;-75
2023/10/01 07:37:37;;;;;;;6.80;2.83;;;18.00;99.90;;;;;;5027143;28;20034;-75
2023/10/01 07:40:09;;;;;;;8.93;3.13;;;18.10;99.90;;;;;;5028594;28;20022;-75
2023/10/01 07:42:46;;;;;;;5.03;2.38;;;18.40;99.90;;;;;;5027234;28;20021;-75
2023/10/01 07:45:19;;;;;;;5.32;2.30;;;18.60;99.90;;;;;;5027227;28;20107;-75
2023/10/01 07:47:45;;;;;;;5.75;2.70;;;18.90;99.90;;;;;;5028568;28;20031;-76
2023/10/01 07:50:16;;;;;;;6.38;2.60;;;19.10;99.90;;;;;;5027113;28;20038;-75
2023/10/01 07:52:44;;;;;;;6.53;2.38;;;19.20;99.90;;;;;;5028404;28;20121;-75
2023/10/01 07:55:35;;;;;;;7.68;2.38;;;19.30;99.90;;;;;;5028381;28;20021;-76
2023/10/01 08:00:59;;;;;;;13.43;1.98;;;19.40;99.90;;;;;;5008601;28;20050;-74
2023/10/01 08:06:05;;;;;;;6.63;2.45;;;19.50;99.90;;;;;;5028241;28;20639;-74
2023/10/01 08:08:37;;;;;;;4.82;2.08;;;19.40;99.70;;;;;;5027040;28;20029;-75
2023/10/01 08:13:51;;;;;;;6.93;2.83;;;19.20;99.90;;;;;;5028584;28;20075;-75
2023/10/01 08:16:16;;;;;;;6.68;2.88;;;19.20;99.80;;;;;;5026667;28;20128;-74
2023/10/01 08:18:46;;;;;;;7.65;3.30;;;19.20;98.20;;;;;;5026542;28;20132;-74
2023/10/01 08:21:18;;;;;;;7.47;3.42;;;19.10;99.00;;;;;;5028202;28;20033;-75
2023/10/01 08:23:54;;;;;;;12.02;4.60;;;19.00;98.90;;;;;;5026786;28;20517;-75
2023/10/01 08:29:06;;;;;;;7.35;3.50;;;18.60;99.90;;;;;;5028403;28;20032;-76
2023/10/01 08:34:24;;;;;;;7.80;3.60;;;18.50;99.90;;;;;;5028157;28;20493;-76
2023/10/01 08:36:58;;;;;;;10.27;4.40;;;18.60;99.90;;;;;;5029209;28;20410;-75
2023/10/01 08:39:34;;;;;;;9.23;3.80;;;18.80;99.50;;;;;;5031762;28;20501;-76
2023/10/01 08:42:12;;;;;;;5.28;2.35;;;19.00;99.30;;;;;;5030431;28;20145;-76
2023/10/01 08:45:05;;;;;;;6.22;2.67;;;19.20;98.00;;;;;;5031573;28;20037;-74
2023/10/01 08:47:34;;;;;;;6.25;3.20;;;19.60;98.00;;;;;;5027494;28;20171;-76
2023/10/01 08:50:27;;;;;;;6.32;2.90;;;20.00;96.10;;;;;;5031636;28;20029;-76
2023/10/01 08:52:57;;;;;;;6.55;2.67;;;19.80;95.50;;;;;;5031503;28;20120;-75
2023/10/01 08:55:35;;;;;;;6.93;3.35;;;19.90;96.00;;;;;;5031441;28;20494;-74
2023/10/01 09:00:49;;;;;;;6.80;3.38;;;20.40;95.50;;;;;;5031465;28;20375;-76
2023/10/01 09:03:26;;;;;;;7.93;3.25;;;21.00;93.80;;;;;;5030161;28;20061;-76
2023/10/01 09:06:01;;;;;;;6.65;2.80;;;21.40;90.10;;;;;;5030035;28;20672;-74
2023/10/01 09:08:30;;;;;;;4.40;2.65;;;21.50;89.10;;;;;;5031249;28;20029;-78
2023/10/01 09:10:56;;;;;;;7.60;2.80;;;21.50;89.70;;;;;;5031201;28;20022;-76
2023/10/01 09:13:22;;;;;;;6.75;2.72;;;21.90;87.10;;;;;;5031160;28;20445;-75
2023/10/01 09:15:55;;;;;;;6.47;2.47;;;21.90;84.50;;;;;;5029711;28;20033;-75
2023/10/01 09:18:25;;;;;;;5.68;3.00;;;21.90;85.80;;;;;;5029761;28;20410;-75
2023/10/01 09:21:08;;;;;;;5.68;2.67;;;21.80;85.30;;;;;;5029632;28;20148;-76
2023/10/01 09:23:54;;;;;;;6.35;3.42;;;21.60;86.40;;;;;;5029639;28;20129;-74
2023/10/01 09:26:44;;;;;;;10.00;2.97;;;21.40;87.60;;;;;;5030949;28;20041;-76
2023/10/01 09:29:21;;;;;;;5.75;2.88;;;21.30;89.10;;;;;;5030896;28;20033;-75
2023/10/01 09:31:59;;;;;;;7.65;3.00;;;21.20;89.40;;;;;;5029661;28;20498;-74
2023/10/01 09:34:33;;;;;;;9.55;3.05;;;21.10;90.10;;;;;;5029505;28;20029;-75
2023/10/01 09:37:41;;;;;;;5.38;2.55;;;21.20;90.50;;;;;;5046053;28;20044;-73
2023/10/01 09:42:57;;;;;;;7.22;3.00;;;21.50;86.30;;;;;;5030934;28;20076;-75
2023/10/01 09:45:34;;;;;;;6.07;2.50;;;21.40;88.00;;;;;;5039389;28;20033;-74
2023/10/01 09:48:05;;;;;;;7.10;3.28;;;21.30;89.60;;;;;;5049387;28;20035;-75
2023/10/01 09:50:43;;;;;;;5.72;2.80;;;21.50;89.10;;;;;;5050420;28;20028;-75
2023/10/01 09:53:13;;;;;;;5.25;2.50;;;22.20;86.80;;;;;;5050518;28;20053;-74
2023/10/01 09:55:47;;;;;;;5.97;3.05;;;23.20;81.70;;;;;;5048892;28;20107;-74
2023/10/01 09:58:29;;;;;;;8.82;3.97;;;24.00;75.80;;;;;;5048821;28;20481;-75
2023/10/01 10:01:01;;;;;;;10.68;3.25;;;24.20;71.90;;;;;;5048786;28;20489;-75
2023/10/01 10:03:36;;;;;;;6.20;3.05;;;24.50;71.00;;;;;;5050192;28;20106;-75
2023/10/01 10:06:10;;;;;;;9.10;3.25;;;24.60;69.40;;;;;;5050031;28;20753;-74
2023/10/01 10:08:40;;;;;;;6.72;3.38;;;25.10;67.90;;;;;;5050084;28;20029;-75
2023/10/01 10:11:23;;;;;;;7.55;3.22;;;25.00;67.10;;;;;;5050035;28;20029;-75
2023/10/01 10:13:50;;;;;;;6.72;3.17;;;24.80;68.00;;;;;;5049992;28;20029;-74
2023/10/01 10:16:30;;;;;;;6.03;3.00;;;24.60;69.60;;;;;;5049742;28;20127;-75
2023/10/01 10:19:20;;;;;;;8.20;3.47;;;24.40;69.30;;;;;;5043582;28;20021;-75
2023/10/01 10:24:34;;;;;;;10.93;3.60;;;23.50;71.00;;;;;;5029718;28;20030;-76
2023/10/01 10:27:08;;;;;;;5.40;3.53;;;23.30;71.20;;;;;;5028296;28;20116;-74
2023/10/01 10:29:46;;;;;;;6.53;2.88;;;22.90;72.60;;;;;;5029701;28;20522;-75
2023/10/01 10:32:16;;;;;;;6.22;3.92;;;22.90;74.60;;;;;;5029741;28;20118;-75
2023/10/01 10:35:03;;;;;;;13.52;4.13;;;22.90;74.20;;;;;;5029492;28;20043;-76
2023/10/01 10:37:35;;;;;;;7.35;3.17;;;22.80;72.80;;;;;;5028236;28;20525;-75
2023/10/01 10:42:38;;;;;;;12.52;4.65;;;22.30;75.70;;;;;;5029460;28;20036;-76
2023/10/01 10:45:23;;;;;;;6.55;4.50;;;22.10;76.60;;;;;;5027982;28;20052;-74
2023/10/01 10:48:03;;;;;;;9.38;3.88;;;22.30;76.40;;;;;;5029334;28;20026;-75
2023/10/01 10:50:53;;;;;;;8.73;4.25;;;21.90;79.20;;;;;;5029245;28;20038;-75
2023/10/01 10:53:29;;;;;;;6.03;3.80;;;22.00;79.70;;;;;;5027926;28;20033;-75
2023/10/01 10:56:04;;;;;;;6.63;3.80;;;22.10;79.00;;;;;;5029283;28;20025;-75
2023/10/01 10:59:01;;;;;;;8.15;3.45;;;22.00;81.20;;;;;;5029078;28;20069;-75
2023/10/01 11:01:27;;;;;;;13.85;4.20;;;22.10;83.00;;;;;;5029128;28;20033;-75
2023/10/01 11:03:57;;;;;;;6.18;3.45;;;22.20;82.80;;;;;;5029105;28;20029;-75
2023/10/01 11:06:39;;;;;;;7.13;4.40;;;22.20;81.20;;;;;;5028989;28;20132;-75
2023/10/01 11:09:25;;;;;;;10.55;4.47;;;22.20;80.10;;;;;;5029010;28;20022;-75
2023/10/01 11:12:21;;;;;;;7.03;3.55;;;22.30;78.90;;;;;;5027943;28;20044;-75
2023/10/01 11:17:47;;;;;;;5.72;3.15;;;22.10;79.70;;;;;;5028960;28;20850;-75
2023/10/01 11:20:22;;;;;;;8.52;3.97;;;21.90;81.30;;;;;;5027359;28;20044;-75
2023/10/01 11:22:54;;;;;;;9.20;4.95;;;21.90;80.80;;;;;;5028899;28;20063;-74
2023/10/01 11:25:24;;;;;;;8.45;3.85;;;21.80;81.90;;;;;;5031929;28;20450;-75
2023/10/01 11:28:04;;;;;;;7.05;3.67;;;21.50;80.30;;;;;;5047304;28;20033;-76
2023/10/01 11:30:34;;;;;;;9.45;4.43;;;21.60;82.30;;;;;;5037806;28;20075;-75
2023/10/01 11:35:59;;;;;;;8.23;3.90;;;21.70;81.30;;;;;;5028505;28;20181;-75
2023/10/01 11:38:26;;;;;;;9.95;3.92;;;21.70;82.20;;;;;;5027250;28;20030;-74
2023/10/01 11:41:07;;;;;;;6.40;3.75;;;21.80;84.70;;;;;;5027047;28;20327;-74
2023/10/01 11:44:08;;;;;;;6.47;3.25;;;21.80;83.30;;;;;;5043647;28;20494;-74
2023/10/01 11:49:32;;;;;;;7.55;3.38;;;21.90;81.90;;;;;;5028668;28;20033;-75
2023/10/01 11:52:05;;;;;;;9.23;4.30;;;22.00;81.20;;;;;;5028382;28;20029;-75
2023/10/01 11:54:43;;;;;;;6.63;3.83;;;22.10;79.30;;;;;;5028465;28;20029;-75
2023/10/01 11:57:22;;;;;;;7.50;3.63;;;22.10;80.00;;;;;;5027028;28;20033;-75
2023/10/01 11:59:58;;;;;;;6.03;3.22;;;22.10;80.40;;;;;;5027093;28;20072;-74
2023/10/01 12:02:26;;;;;;;7.43;3.50;;;22.10;80.50;;;;;;5028358;28;20029;-75
2023/10/01 12:04:57;;;;;;;6.28;3.10;;;22.20;81.10;;;;;;5028149;28;20112;-75
2023/10/01 12:07:27;;;;;;;7.68;3.33;;;22.10;81.40;;;;;;5028067;28;20048;-75
2023/10/01 12:09:55;;;;;;;10.32;3.40;;;22.20;79.80;;;;;;5033748;28;20017;-74
2023/10/01 12:12:27;;;;;;;6.35;3.42;;;22.20;79.60;;;;;;5038768;28;20039;-75
2023/10/01 12:14:57;;;;;;;6.32;3.78;;;22.20;79.90;;;;;;5040119;28;20050;-74
2023/10/01 12:17:27;;;;;;;7.63;4.10;;;22.20;78.40;;;;;;5039415;28;20157;-74
2023/10/01 12:19:59;;;;;;;10.60;4.22;;;22.20;79.70;;;;;;5038870;28;20021;-75
2023/10/01 12:22:26;;;;;;;7.13;3.83;;;22.20;80.70;;;;;;5040067;28;20504;-75
2023/10/01 12:24:59;;;;;;;8.05;3.55;;;22.10;79.60;;;;;;5041558;28;20391;-75
2023/10/01 12:27:43;;;;;;;7.10;4.13;;;22.00;80.10;;;;;;5040548;28;20020;-75
2023/10/01 12:30:31;;;;;;;5.88;3.38;;;21.90;80.40;;;;;;5040269;28;20056;-74
2023/10/01 12:33:00;;;;;;;6.32;3.92;;;21.80;81.30;;;;;;5040013;28;20039;-75
2023/10/01 12:35:29;;;;;;;7.25;3.60;;;21.60;81.70;;;;;;5040292;28;20033;-74
2023/10/01 12:40:52;;;;;;;6.97;3.78;;;21.40;81.80;;;;;;5042224;28;20076;-74
2023/10/01 12:43:36;;;;;;;10.38;4.65;;;21.50;83.80;;;;;;5040206;28;20038;-75
2023/10/01 12:46:08;;;;;;;6.07;3.53;;;21.60;82.10;;;;;;5042010;28;20033;-74
2023/10/01 12:48:34;;;;;;;7.32;3.83;;;21.70;83.50;;;;;;5040909;28;20022;-75
2023/10/01 12:51:00;;;;;;;7.70;3.47;;;21.70;83.10;;;;;;5041576;28;20130;-75
2023/10/01 12:53:27;;;;;;;6.13;3.83;;;21.70;83.60;;;;;;5038547;28;20522;-76
2023/10/01 12:55:53;;;;;;;10.05;4.22;;;21.50;82.20;;;;;;5041394;28;20395;-75
2023/10/01 12:58:35;;;;;;;9.98;3.90;;;21.70;82.80;;;;;;5035207;28;20029;-75
2023/10/01 13:01:05;;;;;;;6.25;3.60;;;21.80;84.00;;;;;;5031434;28;20029;-75
2023/10/01 13:03:31;;;;;;;9.35;3.92;;;21.80;84.40;;;;;;5030070;28;20033;-75
2023/10/01 13:06:05;;;;;;;6.53;2.90;;;21.90;84.60;;;;;;5031247;28;20635;-75
2023/10/01 13:08:31;;;;;;;7.43;3.50;;;21.90;84.40;;;;;;5030001;28;20086;-74
2023/10/01 13:10:57;;;;;;;8.55;3.35;;;21.90;83.70;;;;;;5031279;28;20029;-75
2023/10/01 13:13:30;;;;;;;7.00;3.45;;;21.80;83.10;;;;;;5031029;28;20494;-74
2023/10/01 13:16:00;;;;;;;10.02;3.65;;;21.90;81.70;;;;;;5029689;28;20045;-75
2023/10/01 13:18:29;;;;;;;8.18;4.05;;;21.80;82.60;;;;;;5029851;28;20075;-75
2023/10/01 13:23:24;;;;;;;10.05;3.15;;;21.90;81.70;;;;;;5031256;28;20525;-75
2023/10/01 13:26:15;;;;;;;6.13;3.65;;;21.90;78.40;;;;;;5029563;28;20041;-75
2023/10/01 13:28:51;;;;;;;7.55;3.58;;;21.80;78.60;;;;;;5029583;28;20029;-75
2023/10/01 13:34:09;;;;;;;6.70;3.35;;;21.70;80.30;;;;;;5030974;28;20410;-75
2023/10/01 13:36:47;;;;;;;7.43;2.78;;;21.70;79.50;;;;;;5029463;28;20033;-74
2023/10/01 13:39:44;;;;;;;12.45;3.63;;;21.70;79.50;;;;;;5030772;28;20025;-74
2023/10/01 14:09:54;;;;;;;6.95;2.40;;;21.10;75.60;;;;;;5030250;28;20036;-75
2023/10/01 14:12:54;;;;;;;9.48;3.15;;;21.10;75.00;;;;;;5030155;28;20051;-75
2023/10/01 14:15:21;;;;;;;11.35;3.05;;;21.10;75.20;;;;;;5030119;28;20025;-75
2023/10/01 14:18:00;;;;;;;6.03;2.65;;;21.00;76.30;;;;;;5029603;28;20037;-75
2023/10/01 14:23:39;;;;;;;6.30;2.85;;;20.90;75.50;;;;;;5029679;28;20498;-76
2023/10/01 14:25:58;;;;;;;4.80;2.17;;;20.70;75.80;;;;;;5029415;28;20053;-75
2023/10/01 14:28:28;;;;;;;8.77;3.40;;;20.70;72.80;;;;;;5028980;28;20041;-75
2023/10/01 14:31:03;;;;;;;6.15;2.83;;;20.60;72.00;;;;;;5029504;28;20136;-75
2023/10/01 14:33:39;;;;;;;7.18;3.25;;;20.50;73.20;;;;;;5029139;28;20088;-75
2023/10/01 14:36:05;;;;;;;7.43;2.60;;;20.40;75.10;;;;;;5029599;28;20029;-75
2023/10/01 14:38:37;;;;;;;8.55;3.13;;;20.20;76.00;;;;;;5028253;28;20506;-75
2023/10/01 14:41:04;;;;;;;5.05;2.13;;;20.10;77.70;;;;;;5029938;28;20498;-75
2023/10/01 14:43:30;;;;;;;7.43;2.70;;;20.10;78.30;;;;;;5028187;28;20112;-76
2023/10/01 14:45:55;;;;;;;5.32;2.83;;;20.00;79.40;;;;;;5027850;28;20475;-75
2023/10/01 14:48:22;;;;;;;7.93;2.63;;;20.00;78.20;;;;;;5028003;28;20033;-76